Time;durP1;ratioP1;P1;durP2;ratioP2;P2;SDS_P1;SDS_P2;PMS_P1;PMS_P2;Temp;Humidity;BMP_temperature;BMP_pressure;BME280_temperature;BME280_humidity;BME280_pressure;Samples;Min_cycle;Max_cycle;Signal;HPM_P1;HPM_P2
2023/07/12 00:01:42;;;;;;;3.35;1.70;;;;;;;;;;5126302;27;20620;-62
2023/07/12 00:04:08;;;;;;;3.28;1.60;;;;;;;;;;5124999;27;20048;-61
2023/07/12 00:06:38;;;;;;;4.28;1.70;;;;;;;;;;5125828;27;20058;-64
2023/07/12 00:09:06;;;;;;;4.45;1.58;;;;;;;;;;5125757;27;20083;-63
2023/07/12 00:11:32;;;;;;;2.53;1.73;;;;;;;;;;5120957;27;20083;-61
2023/07/12 00:13:58;;;;;;;5.93;1.42;;;;;;;;;;5123960;27;20497;-64
2023/07/12 00:16:29;;;;;;;6.57;2.22;;;;;;;;;;5124566;27;20835;-63
2023/07/12 00:18:56;;;;;;;4.68;1.83;;;;;;;;;;5117605;27;20055;-62
2023/07/12 00:21:24;;;;;;;4.05;1.88;;;;;;;;;;5125250;27;20556;-64
2023/07/12 00:23:52;;;;;;;4.72;2.05;;;;;;;;;;5124587;27;20048;-63
2023/07/12 00:26:20;;;;;;;8.88;1.83;;;;;;;;;;5124412;27;20498;-64
2023/07/12 00:28:47;;;;;;;5.15;1.80;;;;;;;;;;5124942;27;20076;-65
2023/07/12 00:31:13;;;;;;;3.03;2.00;;;;;;;;;;5125444;27;20135;-63
2023/07/12 00:33:39;;;;;;;6.35;1.90;;;;;;;;;;5124961;27;20138;-64
2023/07/12 00:36:11;;;;;;;5.30;2.25;;;;;;;;;;5124717;27;20047;-60
2023/07/12 00:38:40;;;;;;;5.32;1.58;;;;;;;;;;5125050;27;20143;-63
2023/07/12 00:41:25;;;;;;;2.70;1.70;;;;;;;;;;5106882;27;20055;-64
2023/07/12 00:43:57;;;;;;;4.32;1.73;;;;;;;;;;5124701;27;20109;-65
2023/07/12 00:46:39;;;;;;;2.08;1.50;;;;;;;;;;5124315;27;20063;-65
2023/07/12 00:49:09;;;;;;;3.53;1.80;;;;;;;;;;5124474;27;20048;-62
2023/07/12 00:51:48;;;;;;;2.28;1.52;;;;;;;;;;5124089;27;20081;-64
2023/07/12 00:54:15;;;;;;;3.65;1.48;;;;;;;;;;5124207;27;20146;-64
2023/07/12 00:56:42;;;;;;;3.20;1.95;;;;;;;;;;5124458;27;20505;-64
2023/07/12 00:59:11;;;;;;;3.38;1.75;;;;;;;;;;5124593;27;20136;-63
2023/07/12 01:01:38;;;;;;;3.95;1.98;;;;;;;;;;5124412;27;20052;-59
2023/07/12 01:04:05;;;;;;;2.08;1.50;;;;;;;;;;5124006;27;20087;-64
2023/07/12 01:06:32;;;;;;;4.53;1.35;;;;;;;;;;5125576;27;20055;-59
2023/07/12 01:09:01;;;;;;;3.42;1.73;;;;;;;;;;5089819;27;20142;-58
2023/07/12 01:11:29;;;;;;;9.00;1.70;;;;;;;;;;5125786;27;20051;-62
2023/07/12 01:13:55;;;;;;;5.35;1.73;;;;;;;;;;5125927;27;20051;-61
2023/07/12 01:16:22;;;;;;;4.30;1.42;;;;;;;;;;5125971;27;20670;-65
2023/07/12 01:18:49;;;;;;;6.30;2.08;;;;;;;;;;5127303;27;20162;-65
2023/07/12 01:21:20;;;;;;;6.00;2.17;;;;;;;;;;5119695;27;20081;-63
2023/07/12 01:23:47;;;;;;;8.50;1.90;;;;;;;;;;5106676;27;20177;-64
2023/07/12 01:26:16;;;;;;;3.30;1.63;;;;;;;;;;5124470;27;20048;-64
2023/07/12 01:28:42;;;;;;;4.85;2.08;;;;;;;;;;5124998;27;20101;-62
2023/07/12 01:31:09;;;;;;;6.53;1.55;;;;;;;;;;5122158;27;20114;-65
2023/07/12 01:33:36;;;;;;;7.60;1.70;;;;;;;;;;5124331;27;20052;-65
2023/07/12 01:36:02;;;;;;;7.10;1.88;;;;;;;;;;5123340;27;20059;-63
2023/07/12 01:38:29;;;;;;;10.07;2.20;;;;;;;;;;5125317;27;20056;-62
2023/07/12 01:40:55;;;;;;;8.35;2.10;;;;;;;;;;5122849;27;20047;-64
2023/07/12 01:43:22;;;;;;;9.55;2.55;;;;;;;;;;5123254;27;20356;-61
2023/07/12 01:45:48;;;;;;;6.25;2.38;;;;;;;;;;5124924;27;20134;-62
2023/07/12 01:48:14;;;;;;;4.88;2.30;;;;;;;;;;5124149;27;20047;-64
2023/07/12 01:50:41;;;;;;;6.75;2.38;;;;;;;;;;5124297;27;20555;-62
2023/07/12 01:53:08;;;;;;;6.78;1.85;;;;;;;;;;5124094;27;20055;-63
2023/07/12 01:55:35;;;;;;;7.72;2.40;;;;;;;;;;5125503;27;20052;-62
2023/07/12 01:58:01;;;;;;;11.20;2.47;;;;;;;;;;5124776;27;20494;-63
2023/07/12 02:00:28;;;;;;;8.07;3.63;;;;;;;;;;5123551;27;20051;-63
2023/07/12 02:02:55;;;;;;;9.48;3.63;;;;;;;;;;5123913;27;20079;-64
2023/07/12 02:05:22;;;;;;;6.93;2.28;;;;;;;;;;5122556;27;20895;-62
2023/07/12 02:07:48;;;;;;;10.40;2.30;;;;;;;;;;5123879;27;20075;-63
2023/07/12 02:10:16;;;;;;;9.20;3.75;;;;;;;;;;5122999;27;20055;-63
2023/07/12 02:12:43;;;;;;;4.50;1.88;;;;;;;;;;5116204;27;20595;-63
2023/07/12 02:15:11;;;;;;;6.20;1.90;;;;;;;;;;5122271;27;20612;-63
2023/07/12 02:17:38;;;;;;;8.18;2.72;;;;;;;;;;5123894;27;20579;-63
2023/07/12 02:20:05;;;;;;;11.88;2.40;;;;;;;;;;5123592;27;20094;-64
2023/07/12 02:22:32;;;;;;;6.72;2.20;;;;;;;;;;5124203;27;20055;-60
2023/07/12 02:24:59;;;;;;;5.40;3.25;;;;;;;;;;5124056;27;20565;-62
2023/07/12 02:27:25;;;;;;;6.28;2.25;;;;;;;;;;5123536;27;20498;-63
2023/07/12 02:29:52;;;;;;;9.70;3.00;;;;;;;;;;5123731;27;20039;-63
2023/07/12 02:32:20;;;;;;;5.40;2.30;;;;;;;;;;5123640;27;20128;-63
2023/07/12 02:34:47;;;;;;;7.50;2.58;;;;;;;;;;5123750;27;20051;-60
2023/07/12 02:37:14;;;;;;;11.00;3.00;;;;;;;;;;5122680;27;20055;-63
2023/07/12 02:39:40;;;;;;;9.65;2.60;;;;;;;;;;5123016;27;20147;-63
2023/07/12 02:42:07;;;;;;;4.75;2.25;;;;;;;;;;5122971;27;20051;-61
2023/07/12 02:44:33;;;;;;;8.00;2.08;;;;;;;;;;5123762;27;20055;-61
2023/07/12 02:47:00;;;;;;;10.07;2.20;;;;;;;;;;5123067;27;20079;-63
2023/07/12 02:49:26;;;;;;;3.78;1.88;;;;;;;;;;5123280;27;20426;-63
2023/07/12 02:51:53;;;;;;;7.90;1.98;;;;;;;;;;5124297;27;20204;-62
2023/07/12 02:54:19;;;;;;;7.65;2.40;;;;;;;;;;5126833;27;20056;-64
2023/07/12 02:56:45;;;;;;;5.00;2.03;;;;;;;;;;5125540;27;20575;-62
2023/07/12 02:59:12;;;;;;;5.30;2.38;;;;;;;;;;5126624;27;20108;-61
2023/07/12 03:01:38;;;;;;;6.25;1.98;;;;;;;;;;5125511;27;20097;-61
2023/07/12 03:04:05;;;;;;;9.68;2.15;;;;;;;;;;5126619;27;20058;-63
2023/07/12 03:06:31;;;;;;;5.28;1.92;;;;;;;;;;5115620;27;20059;-63
2023/07/12 03:08:57;;;;;;;7.20;2.20;;;;;;;;;;5127322;27;20052;-63
2023/07/12 03:11:24;;;;;;;4.15;2.00;;;;;;;;;;5127365;27;20085;-63
2023/07/12 03:13:50;;;;;;;6.20;2.28;;;;;;;;;;5118045;27;20635;-61
2023/07/12 03:16:17;;;;;;;4.13;2.28;;;;;;;;;;5112456;27;20494;-63
2023/07/12 03:18:43;;;;;;;7.30;2.13;;;;;;;;;;5127136;27;20051;-63
2023/07/12 03:21:10;;;;;;;7.03;2.10;;;;;;;;;;5124527;27;20114;-63
2023/07/12 03:23:37;;;;;;;4.65;2.55;;;;;;;;;;5108180;27;20098;-61
2023/07/12 03:26:03;;;;;;;10.43;2.67;;;;;;;;;;5127094;27;20051;-61
2023/07/12 03:28:30;;;;;;;7.82;2.75;;;;;;;;;;5125531;27;20143;-63
2023/07/12 03:31:16;;;;;;;9.98;2.50;;;;;;;;;;5126558;27;20494;-62
2023/07/12 03:33:44;;;;;;;9.15;2.85;;;;;;;;;;5127570;27;20074;-62
2023/07/12 03:36:12;;;;;;;5.07;2.35;;;;;;;;;;5124344;27;20135;-63
2023/07/12 03:38:39;;;;;;;7.43;2.30;;;;;;;;;;5126408;27;20142;-60
2023/07/12 03:41:08;;;;;;;15.15;3.20;;;;;;;;;;5126240;27;20545;-62
2023/07/12 03:43:35;;;;;;;10.02;2.90;;;;;;;;;;5125810;27;20062;-63
2023/07/12 03:46:03;;;;;;;9.73;3.10;;;;;;;;;;5126408;27;20051;-62
2023/07/12 03:48:30;;;;;;;8.48;3.45;;;;;;;;;;5108727;27;20047;-62
2023/07/12 03:50:57;;;;;;;11.15;3.63;;;;;;;;;;5125193;27;20051;-62
2023/07/12 03:53:24;;;;;;;17.45;3.97;;;;;;;;;;5126220;27;20059;-59
2023/07/12 03:55:50;;;;;;;10.20;3.83;;;;;;;;;;5126594;27;20047;-63
2023/07/12 03:58:18;;;;;;;6.72;3.55;;;;;;;;;;5126147;27;20494;-63
2023/07/12 04:00:46;;;;;;;10.23;4.70;;;;;;;;;;5110213;27;20122;-63
2023/07/12 04:03:13;;;;;;;8.50;4.05;;;;;;;;;;5125579;27;20586;-64
2023/07/12 04:05:40;;;;;;;12.70;4.30;;;;;;;;;;5124805;27;20529;-63
2023/07/12 04:08:08;;;;;;;11.65;4.97;;;;;;;;;;5123878;27;20163;-63
2023/07/12 04:10:35;;;;;;;13.98;4.88;;;;;;;;;;5124756;27;20066;-63
2023/07/12 04:13:02;;;;;;;9.27;5.15;;;;;;;;;;5122496;27;20677;-63
2023/07/12 04:15:28;;;;;;;16.77;6.00;;;;;;;;;;5124746;27;20462;-63
2023/07/12 04:17:55;;;;;;;10.60;4.60;;;;;;;;;;5125781;27;20485;-62
2023/07/12 04:20:24;;;;;;;11.13;5.50;;;;;;;;;;5103515;28;20056;-61
2023/07/12 04:22:52;;;;;;;10.15;5.15;;;;;;;;;;5119319;27;20063;-63
2023/07/12 04:25:18;;;;;;;9.98;5.03;;;;;;;;;;5124865;27;20058;-63
2023/07/12 04:27:45;;;;;;;10.63;4.70;;;;;;;;;;5125705;27;20478;-63
2023/07/12 04:30:12;;;;;;;13.82;5.22;;;;;;;;;;5125280;27;20520;-61
2023/07/12 04:32:39;;;;;;;10.52;4.45;;;;;;;;;;5124463;27;20055;-60
2023/07/12 04:35:05;;;;;;;13.68;4.97;;;;;;;;;;5124537;27;20402;-63
2023/07/12 04:37:32;;;;;;;11.45;4.68;;;;;;;;;;5122500;27;20152;-60
2023/07/12 04:39:58;;;;;;;14.40;5.45;;;;;;;;;;5115843;27;20498;-60
2023/07/12 04:42:25;;;;;;;9.35;5.57;;;;;;;;;;5121238;27;20120;-62
2023/07/12 04:44:52;;;;;;;10.55;5.20;;;;;;;;;;5128422;27;20051;-63
2023/07/12 04:47:18;;;;;;;7.32;4.70;;;;;;;;;;5105129;28;20528;-62
2023/07/12 04:49:44;;;;;;;13.48;4.75;;;;;;;;;;5109974;27;20563;-61
2023/07/12 04:52:14;;;;;;;9.65;5.22;;;;;;;;;;5125329;27;20048;-63
2023/07/12 04:54:41;;;;;;;7.13;5.10;;;;;;;;;;5125245;27;20091;-62
2023/07/12 04:57:08;;;;;;;10.43;5.13;;;;;;;;;;5124053;27;20509;-62
2023/07/12 04:59:35;;;;;;;13.88;5.65;;;;;;;;;;5124316;27;20230;-62
2023/07/12 05:02:01;;;;;;;8.73;5.35;;;;;;;;;;5125342;27;20063;-60
2023/07/12 05:04:28;;;;;;;8.85;4.63;;;;;;;;;;5114928;27;20590;-62
2023/07/12 05:06:54;;;;;;;10.98;6.32;;;;;;;;;;5125215;27;20590;-62
2023/07/12 05:09:21;;;;;;;11.70;6.30;;;;;;;;;;5124031;27;20056;-61
2023/07/12 05:11:47;;;;;;;12.45;5.07;;;;;;;;;;5124822;27;21011;-62
2023/07/12 05:14:14;;;;;;;10.55;5.20;;;;;;;;;;5123775;27;20767;-61
2023/07/12 05:16:40;;;;;;;11.13;5.07;;;;;;;;;;5122032;27;20571;-62
2023/07/12 05:19:07;;;;;;;11.05;6.05;;;;;;;;;;5112396;27;20056;-62
2023/07/12 05:21:33;;;;;;;9.23;5.40;;;;;;;;;;5124725;27;20131;-62
2023/07/12 05:24:00;;;;;;;16.52;6.45;;;;;;;;;;5116477;27;20483;-61
2023/07/12 05:26:26;;;;;;;11.05;6.20;;;;;;;;;;5116825;27;20105;-61
2023/07/12 05:28:53;;;;;;;15.10;5.95;;;;;;;;;;5123143;27;20151;-62
2023/07/12 05:31:19;;;;;;;13.20;7.05;;;;;;;;;;5118665;27;20062;-60
2023/07/12 05:33:46;;;;;;;11.30;6.07;;;;;;;;;;5124010;27;20051;-60
2023/07/12 05:36:13;;;;;;;9.63;5.95;;;;;;;;;;5139559;27;20047;-60
2023/07/12 05:38:41;;;;;;;14.13;6.07;;;;;;;;;;5124460;27;20447;-63
2023/07/12 05:41:07;;;;;;;13.98;6.25;;;;;;;;;;5100507;27;20058;-62
2023/07/12 05:43:34;;;;;;;13.35;7.65;;;;;;;;;;5112560;27;20572;-62
2023/07/12 05:46:01;;;;;;;12.00;6.53;;;;;;;;;;5123677;27;20182;-60
2023/07/12 05:48:27;;;;;;;12.05;6.10;;;;;;;;;;5125189;27;20566;-62
2023/07/12 05:50:54;;;;;;;11.05;5.97;;;;;;;;;;5122497;27;20085;-61
2023/07/12 05:53:21;;;;;;;15.18;7.53;;;;;;;;;;5118765;27;21702;-61
2023/07/12 05:55:53;;;;;;;9.77;6.07;;;;;;;;;;5120400;27;20131;-62
2023/07/12 05:58:19;;;;;;;12.20;5.78;;;;;;;;;;5122005;27;20128;-59
2023/07/12 06:00:45;;;;;;;10.70;5.07;;;;;;;;;;5119604;27;20043;-61
2023/07/12 06:03:12;;;;;;;12.45;6.10;;;;;;;;;;5123518;27;20056;-60
2023/07/12 06:05:44;;;;;;;14.90;6.10;;;;;;;;;;5123476;27;20083;-61
2023/07/12 06:08:10;;;;;;;15.85;6.30;;;;;;;;;;5123716;27;20406;-61
2023/07/12 06:10:37;;;;;;;12.13;6.00;;;;;;;;;;5123065;27;20059;-61
2023/07/12 06:13:03;;;;;;;10.27;6.05;;;;;;;;;;5123896;27;20142;-61
2023/07/12 06:15:30;;;;;;;15.23;5.68;;;;;;;;;;5123042;27;20079;-62
2023/07/12 06:17:56;;;;;;;10.93;5.28;;;;;;;;;;5123062;27;20550;-61
2023/07/12 06:20:23;;;;;;;10.25;5.38;;;;;;;;;;5126641;27;20055;-62
2023/07/12 06:22:50;;;;;;;10.18;5.00;;;;;;;;;;5121033;27;20522;-61
2023/07/12 06:25:16;;;;;;;10.80;5.43;;;;;;;;;;5126553;27;20062;-62
2023/07/12 06:27:43;;;;;;;13.52;7.45;;;;;;;;;;5122986;27;20071;-62
2023/07/12 06:30:10;;;;;;;14.45;5.95;;;;;;;;;;5123093;27;20131;-60
2023/07/12 06:32:37;;;;;;;15.23;6.43;;;;;;;;;;5124453;27;20559;-62
2023/07/12 06:35:04;;;;;;;12.88;5.43;;;;;;;;;;5122513;27;20075;-62
2023/07/12 06:37:30;;;;;;;10.55;5.43;;;;;;;;;;5124331;27;20059;-62
2023/07/12 06:39:57;;;;;;;10.88;5.03;;;;;;;;;;5105033;27;20105;-61
2023/07/12 06:42:25;;;;;;;12.68;5.60;;;;;;;;;;5122806;27;20060;-60
2023/07/12 06:44:51;;;;;;;10.10;5.57;;;;;;;;;;5123002;27;20536;-62
2023/07/12 06:47:17;;;;;;;8.35;4.97;;;;;;;;;;5121606;27;20126;-63
2023/07/12 06:49:44;;;;;;;9.88;4.95;;;;;;;;;;5122536;27;20085;-62
2023/07/12 06:52:10;;;;;;;8.63;4.97;;;;;;;;;;5118802;27;20058;-61
2023/07/12 06:54:37;;;;;;;10.27;4.60;;;;;;;;;;5123322;27;20142;-63
2023/07/12 06:57:04;;;;;;;8.63;4.75;;;;;;;;;;5122479;27;20312;-62
2023/07/12 06:59:30;;;;;;;12.82;5.28;;;;;;;;;;5123310;27;20059;-62
2023/07/12 07:01:57;;;;;;;13.43;5.07;;;;;;;;;;5122204;27;20055;-61
2023/07/12 07:04:24;;;;;;;11.32;5.20;;;;;;;;;;5123265;27;20079;-62
2023/07/12 07:06:50;;;;;;;8.68;4.55;;;;;;;;;;5123818;27;20591;-62
2023/07/12 07:09:17;;;;;;;11.98;4.85;;;;;;;;;;5123069;27;20055;-61
2023/07/12 07:11:43;;;;;;;17.90;4.93;;;;;;;;;;5120077;27;20052;-61
2023/07/12 07:14:10;;;;;;;10.70;4.70;;;;;;;;;;5123182;27;20062;-62
2023/07/12 07:16:36;;;;;;;11.60;4.55;;;;;;;;;;5123743;27;20056;-61
2023/07/12 07:19:03;;;;;;;10.93;4.25;;;;;;;;;;5122626;27;20051;-61
2023/07/12 07:21:29;;;;;;;10.13;4.53;;;;;;;;;;5120134;27;20058;-63
2023/07/12 07:23:55;;;;;;;13.93;3.85;;;;;;;;;;5116351;27;20055;-62
2023/07/12 07:26:22;;;;;;;15.85;4.93;;;;;;;;;;5119136;27;21034;-62
2023/07/12 07:28:49;;;;;;;11.63;4.43;;;;;;;;;;5121915;27;20116;-61
2023/07/12 07:31:15;;;;;;;11.23;4.55;;;;;;;;;;5122694;27;20055;-62
2023/07/12 07:33:41;;;;;;;9.43;3.83;;;;;;;;;;5122168;27;20052;-62
2023/07/12 07:36:10;;;;;;;9.75;4.05;;;;;;;;;;5118138;27;20536;-60
2023/07/12 07:38:37;;;;;;;14.90;4.50;;;;;;;;;;5108497;27;20044;-62
2023/07/12 07:41:05;;;;;;;12.98;4.07;;;;;;;;;;5112981;27;20051;-62
2023/07/12 07:43:32;;;;;;;12.80;4.35;;;;;;;;;;5132618;27;20086;-62
2023/07/12 07:45:58;;;;;;;7.78;3.85;;;;;;;;;;5114696;27;20050;-62
2023/07/12 07:48:25;;;;;;;9.98;3.60;;;;;;;;;;5144393;27;20497;-61
2023/07/12 07:50:51;;;;;;;14.20;4.28;;;;;;;;;;5145554;27;20047;-64
2023/07/12 07:53:18;;;;;;;10.02;4.25;;;;;;;;;;5124573;27;20598;-63
2023/07/12 07:55:44;;;;;;;11.90;3.95;;;;;;;;;;5126540;27;20059;-60
2023/07/12 07:58:11;;;;;;;12.13;4.90;;;;;;;;;;5126040;27;20078;-62
2023/07/12 08:00:38;;;;;;;14.60;3.95;;;;;;;;;;5124367;27;20281;-63
2023/07/12 08:03:05;;;;;;;10.45;3.53;;;;;;;;;;5115385;27;20058;-62
2023/07/12 08:05:33;;;;;;;15.57;3.33;;;;;;;;;;5119794;27;20584;-61
2023/07/12 08:07:59;;;;;;;12.68;3.35;;;;;;;;;;5141152;27;20487;-62
2023/07/12 08:10:26;;;;;;;8.32;3.28;;;;;;;;;;5125619;27;20138;-61
2023/07/12 08:12:54;;;;;;;9.95;3.28;;;;;;;;;;5125068;27;20503;-62
2023/07/12 08:15:21;;;;;;;13.80;3.70;;;;;;;;;;5126193;27;20079;-63
2023/07/12 08:17:48;;;;;;;11.18;2.90;;;;;;;;;;5126144;27;20109;-59
2023/07/12 08:20:14;;;;;;;9.95;2.88;;;;;;;;;;5124953;27;20431;-63
2023/07/12 08:22:41;;;;;;;6.82;2.42;;;;;;;;;;5141973;27;20055;-63
2023/07/12 08:25:08;;;;;;;10.10;4.15;;;;;;;;;;5130251;27;20052;-62
2023/07/12 08:27:35;;;;;;;10.25;2.97;;;;;;;;;;5126213;27;20094;-62
2023/07/12 08:30:02;;;;;;;9.30;3.72;;;;;;;;;;5126162;27;20540;-63
2023/07/12 08:32:29;;;;;;;7.65;2.67;;;;;;;;;;5102381;27;20473;-62
2023/07/12 08:34:56;;;;;;;8.38;3.95;;;;;;;;;;5125876;27;20802;-62
2023/07/12 08:37:24;;;;;;;8.18;2.55;;;;;;;;;;5125513;27;20064;-62
2023/07/12 08:39:50;;;;;;;9.43;2.47;;;;;;;;;;5124797;27;20055;-63
2023/07/12 08:42:21;;;;;;;12.05;3.30;;;;;;;;;;5124731;27;20557;-61
2023/07/12 08:44:48;;;;;;;10.57;2.55;;;;;;;;;;5126175;27;20298;-62
2023/07/12 08:47:19;;;;;;;9.13;2.78;;;;;;;;;;5129902;27;20051;-63
2023/07/12 08:49:47;;;;;;;8.77;3.28;;;;;;;;;;5123541;27;20096;-62
2023/07/12 08:52:18;;;;;;;7.05;2.72;;;;;;;;;;5124636;27;20058;-62
2023/07/12 08:54:44;;;;;;;4.45;2.58;;;;;;;;;;5123738;27;20458;-62
2023/07/12 08:57:10;;;;;;;14.02;4.18;;;;;;;;;;5125291;27;20169;-63
2023/07/12 08:59:37;;;;;;;7.72;2.67;;;;;;;;;;5126112;27;20517;-63
2023/07/12 09:02:12;;;;;;;9.60;2.80;;;;;;;;;;5123576;27;20496;-63
2023/07/12 09:04:39;;;;;;;6.28;2.42;;;;;;;;;;5124498;27;20043;-60
2023/07/12 09:07:05;;;;;;;10.70;2.80;;;;;;;;;;5125777;27;20070;-63
2023/07/12 09:09:38;;;;;;;8.48;2.90;;;;;;;;;;5124994;27;20063;-64
2023/07/12 09:12:07;;;;;;;7.68;2.80;;;;;;;;;;5125195;27;20514;-63
2023/07/12 09:14:35;;;;;;;12.85;2.30;;;;;;;;;;5124482;27;20051;-62
2023/07/12 09:17:02;;;;;;;7.57;2.47;;;;;;;;;;5123833;27;20450;-62
2023/07/12 09:19:36;;;;;;;7.90;2.80;;;;;;;;;;5124913;27;20113;-61
2023/07/12 09:22:13;;;;;;;9.25;3.50;;;;;;;;;;5124734;27;20117;-61
2023/07/12 09:24:43;;;;;;;4.88;2.20;;;;;;;;;;5124811;27;20537;-62
2023/07/12 09:27:14;;;;;;;7.93;2.80;;;;;;;;;;5122335;27;20063;-63
2023/07/12 09:29:40;;;;;;;9.63;2.55;;;;;;;;;;5124649;27;20557;-62
2023/07/12 09:32:15;;;;;;;7.43;2.25;;;;;;;;;;5124546;27;20060;-61
2023/07/12 09:34:41;;;;;;;4.72;2.03;;;;;;;;;;5123870;27;20063;-63
2023/07/12 09:37:13;;;;;;;8.73;3.58;;;;;;;;;;5125891;27;20344;-62
2023/07/12 09:39:40;;;;;;;9.75;2.47;;;;;;;;;;5104333;27;20098;-62
2023/07/12 09:42:08;;;;;;;6.22;2.45;;;;;;;;;;5125502;27;20497;-61
2023/07/12 09:44:35;;;;;;;6.68;2.20;;;;;;;;;;5125414;27;20055;-65
2023/07/12 09:47:14;;;;;;;7.93;3.60;;;;;;;;;;5123977;27;20082;-65
2023/07/12 09:49:47;;;;;;;10.05;2.90;;;;;;;;;;5123899;27;20075;-64
2023/07/12 09:52:26;;;;;;;9.38;2.28;;;;;;;;;;5123653;27;20048;-63
2023/07/12 09:54:56;;;;;;;5.88;2.13;;;;;;;;;;5122186;27;20102;-63
2023/07/12 09:57:37;;;;;;;8.45;2.47;;;;;;;;;;5102291;27;20563;-64
2023/07/12 10:00:23;;;;;;;5.03;2.17;;;;;;;;;;5134968;27;20048;-65
2023/07/12 10:02:52;;;;;;;13.52;3.33;;;;;;;;;;5123271;27;20434;-64
2023/07/12 10:05:20;;;;;;;8.25;3.13;;;;;;;;;;5123826;27;20059;-65
2023/07/12 10:07:53;;;;;;;7.22;2.28;;;;;;;;;;5119112;27;20595;-65
2023/07/12 10:10:31;;;;;;;6.43;2.45;;;;;;;;;;5127605;27;20051;-64
2023/07/12 10:13:13;;;;;;;5.03;1.95;;;;;;;;;;5123196;27;20071;-64
2023/07/12 10:15:40;;;;;;;8.68;2.78;;;;;;;;;;5122828;27;20056;-63
2023/07/12 10:18:14;;;;;;;5.30;1.50;;;;;;;;;;5123776;27;20062;-65
2023/07/12 10:20:41;;;;;;;5.32;1.73;;;;;;;;;;5122855;27;20047;-64
2023/07/12 10:23:10;;;;;;;5.93;1.85;;;;;;;;;;5123837;27;20051;-65
2023/07/12 10:25:38;;;;;;;2.42;1.52;;;;;;;;;;5125611;27;20135;-63
2023/07/12 10:28:11;;;;;;;4.70;1.50;;;;;;;;;;5124546;27;20496;-65
2023/07/12 10:30:38;;;;;;;8.35;1.90;;;;;;;;;;5124042;27;20055;-64
2023/07/12 10:33:18;;;;;;;5.35;2.42;;;;;;;;;;5122058;27;20113;-64
2023/07/12 10:35:46;;;;;;;7.70;2.10;;;;;;;;;;5117068;27;20569;-65
2023/07/12 10:38:22;;;;;;;6.68;2.50;;;;;;;;;;5122374;27;20051;-64
2023/07/12 10:40:51;;;;;;;4.28;1.73;;;;;;;;;;5123092;27;20052;-63
2023/07/12 10:43:39;;;;;;;4.15;1.92;;;;;;;;;;5116702;27;20135;-64
2023/07/12 10:46:13;;;;;;;6.97;1.60;;;;;;;;;;5123251;27;20113;-63
2023/07/12 10:48:45;;;;;;;4.75;1.67;;;;;;;;;;5123376;27;20047;-64
2023/07/12 10:51:17;;;;;;;5.35;1.75;;;;;;;;;;5122327;27;20051;-64
2023/07/12 10:53:52;;;;;;;3.95;1.48;;;;;;;;;;5122880;27;20047;-65
2023/07/12 10:56:18;;;;;;;;;;;;;;;;;;5113408;27;20474;-66
2023/07/12 10:58:48;;;;;;;11.27;2.00;;;;;;;;;;5133862;27;46582;-65
2023/07/12 11:01:32;;;;;;;5.40;1.58;;;;;;;;;;5122506;27;20052;-63
2023/07/12 11:04:06;;;;;;;5.03;2.17;;;;;;;;;;5123388;27;20087;-65
2023/07/12 11:06:32;;;;;;;4.55;1.73;;;;;;;;;;5121345;27;20055;-63
2023/07/12 11:08:59;;;;;;;5.93;2.15;;;;;;;;;;5122211;27;20086;-67
2023/07/12 11:11:27;;;;;;;5.35;1.50;;;;;;;;;;5123189;27;20144;-66
2023/07/12 11:13:59;;;;;;;5.40;1.73;;;;;;;;;;5126237;27;20121;-66
2023/07/12 11:16:26;;;;;;;3.63;1.92;;;;;;;;;;5123809;27;20059;-65
2023/07/12 11:18:54;;;;;;;7.72;2.17;;;;;;;;;;5127435;27;20052;-66
2023/07/12 11:21:25;;;;;;;4.78;1.60;;;;;;;;;;5120772;27;20052;-66
2023/07/12 11:23:51;;;;;;;7.15;1.77;;;;;;;;;;5117525;27;20478;-64
2023/07/12 11:26:20;;;;;;;2.17;1.45;;;;;;;;;;5113148;27;20166;-63
2023/07/12 11:28:47;;;;;;;3.63;1.27;;;;;;;;;;5126687;27;20040;-66
2023/07/12 11:31:26;;;;;;;4.50;1.83;;;;;;;;;;5126000;27;20055;-67
2023/07/12 11:33:54;;;;;;;4.43;1.88;;;;;;;;;;5126474;27;20494;-66
2023/07/12 11:36:22;;;;;;;8.02;1.50;;;;;;;;;;5126428;27;20549;-65
2023/07/12 11:38:49;;;;;;;5.20;1.55;;;;;;;;;;5125848;27;20101;-64
2023/07/12 11:41:17;;;;;;;4.68;1.55;;;;;;;;;;5124784;27;20043;-65
2023/07/12 11:43:43;;;;;;;4.30;1.60;;;;;;;;;;5126415;27;20054;-65
2023/07/12 11:46:12;;;;;;;4.45;1.63;;;;;;;;;;5125145;27;20090;-66
2023/07/12 11:48:42;;;;;;;4.30;1.70;;;;;;;;;;5126093;27;20075;-64
2023/07/12 11:51:16;;;;;;;3.75;1.55;;;;;;;;;;5125646;27;20138;-64
2023/07/12 11:53:50;;;;;;;3.28;1.60;;;;;;;;;;5125710;27;20744;-66
2023/07/12 11:56:16;;;;;;;6.50;2.17;;;;;;;;;;5126363;27;20170;-66
2023/07/12 11:58:42;;;;;;;2.47;1.50;;;;;;;;;;5120124;27;20509;-65
2023/07/12 12:01:14;;;;;;;2.15;1.35;;;;;;;;;;5125418;27;20566;-63
2023/07/12 12:03:40;;;;;;;8.77;2.30;;;;;;;;;;5123263;27;20062;-65
2023/07/12 12:06:12;;;;;;;9.05;2.47;;;;;;;;;;5125587;27;20109;-64
2023/07/12 12:08:41;;;;;;;3.75;1.73;;;;;;;;;;5124786;27;20058;-63
2023/07/12 12:11:07;;;;;;;3.55;1.40;;;;;;;;;;5125805;27;20124;-67
2023/07/12 12:13:39;;;;;;;5.47;1.50;;;;;;;;;;5125716;27;20058;-67
2023/07/12 12:16:16;;;;;;;4.93;1.35;;;;;;;;;;5124442;27;20048;-65
2023/07/12 12:18:49;;;;;;;4.15;1.60;;;;;;;;;;5126787;27;20047;-66
2023/07/12 12:21:17;;;;;;;4.55;1.50;;;;;;;;;;5125046;27;20143;-64
2023/07/12 12:23:50;;;;;;;7.00;1.65;;;;;;;;;;5123892;27;20058;-66
2023/07/12 12:26:26;;;;;;;5.22;2.00;;;;;;;;;;5124932;27;20048;-65
2023/07/12 12:28:55;;;;;;;9.77;1.90;;;;;;;;;;5129805;27;20414;-65
2023/07/12 12:31:23;;;;;;;3.85;1.42;;;;;;;;;;5123520;27;20157;-65
2023/07/12 12:33:51;;;;;;;3.90;1.50;;;;;;;;;;5119634;27;20051;-65
2023/07/12 12:36:25;;;;;;;4.70;1.52;;;;;;;;;;5124183;27;20043;-64
2023/07/12 12:38:57;;;;;;;5.38;1.77;;;;;;;;;;5116055;27;20040;-65
2023/07/12 12:41:24;;;;;;;8.63;1.90;;;;;;;;;;5123859;27;20150;-66
2023/07/12 12:43:54;;;;;;;4.50;1.70;;;;;;;;;;5121861;27;20079;-66
2023/07/12 12:46:21;;;;;;;4.32;1.77;;;;;;;;;;5124806;27;20059;-66
2023/07/12 12:48:51;;;;;;;7.07;1.83;;;;;;;;;;5125204;27;20610;-63
2023/07/12 12:51:22;;;;;;;4.93;1.60;;;;;;;;;;5123447;27;20092;-66
2023/07/12 12:53:51;;;;;;;5.45;1.92;;;;;;;;;;5120730;27;20059;-65
2023/07/12 12:56:22;;;;;;;4.10;1.83;;;;;;;;;;5121573;27;20062;-66
2023/07/12 12:58:51;;;;;;;5.50;1.88;;;;;;;;;;5124843;27;20395;-67
2023/07/12 13:01:21;;;;;;;5.47;1.70;;;;;;;;;;5104607;27;20913;-67
2023/07/12 13:03:54;;;;;;;8.85;1.80;;;;;;;;;;5124745;27;20047;-67
2023/07/12 13:06:27;;;;;;;5.50;1.70;;;;;;;;;;5108070;27;20056;-66
2023/07/12 13:08:53;;;;;;;6.47;1.83;;;;;;;;;;5122623;27;20108;-66
2023/07/12 13:11:23;;;;;;;4.32;1.30;;;;;;;;;;5108009;27;20473;-67
2023/07/12 13:14:09;;;;;;;3.92;1.60;;;;;;;;;;5110246;27;20133;-63
2023/07/12 13:16:39;;;;;;;10.23;2.20;;;;;;;;;;5104779;27;20062;-63
2023/07/12 13:19:11;;;;;;;4.53;1.73;;;;;;;;;;5121227;27;20126;-62
2023/07/12 13:21:50;;;;;;;8.00;1.80;;;;;;;;;;5124846;27;20582;-63
2023/07/12 13:24:19;;;;;;;2.80;1.42;;;;;;;;;;5117878;27;20239;-64
2023/07/12 13:26:46;;;;;;;2.90;1.48;;;;;;;;;;5127566;27;20093;-65
2023/07/12 13:29:16;;;;;;;3.92;1.33;;;;;;;;;;5124829;27;20530;-64
2023/07/12 13:31:42;;;;;;;2.35;1.20;;;;;;;;;;5124924;27;20145;-64
2023/07/12 13:34:08;;;;;;;5.05;2.00;;;;;;;;;;5124148;27;20052;-62
2023/07/12 13:36:44;;;;;;;2.50;1.20;;;;;;;;;;5124527;27;20047;-65
2023/07/12 13:39:15;;;;;;;3.67;1.13;;;;;;;;;;5120143;27;20101;-64
2023/07/12 13:41:45;;;;;;;2.55;1.15;;;;;;;;;;5101784;27;20582;-64
2023/07/12 13:44:15;;;;;;;2.25;0.95;;;;;;;;;;5123133;27;20549;-65
2023/07/12 13:46:44;;;;;;;5.13;1.00;;;;;;;;;;5125404;27;20170;-64
2023/07/12 13:49:12;;;;;;;3.03;0.80;;;;;;;;;;5124454;27;20151;-63
2023/07/12 13:51:39;;;;;;;3.67;1.10;;;;;;;;;;5106204;27;20091;-62
2023/07/12 13:54:05;;;;;;;3.75;1.10;;;;;;;;;;5124412;27;20545;-63
2023/07/12 13:56:33;;;;;;;2.55;0.82;;;;;;;;;;5120185;27;20508;-64
2023/07/12 13:59:03;;;;;;;3.95;0.98;;;;;;;;;;5124879;27;20059;-64
2023/07/12 14:01:44;;;;;;;4.15;1.02;;;;;;;;;;5104120;27;20513;-64
2023/07/12 14:04:26;;;;;;;1.58;0.80;;;;;;;;;;5114971;27;20058;-62
2023/07/12 14:07:01;;;;;;;2.17;0.68;;;;;;;;;;5114012;27;20295;-61
2023/07/12 14:09:48;;;;;;;4.05;1.05;;;;;;;;;;5112017;27;20059;-62
2023/07/12 14:12:34;;;;;;;3.63;1.15;;;;;;;;;;5117751;27;20054;-62
2023/07/12 14:15:02;;;;;;;3.80;0.90;;;;;;;;;;5120414;27;20043;-61
2023/07/12 14:17:28;;;;;;;4.53;0.93;;;;;;;;;;5118299;27;20052;-63
2023/07/12 14:19:56;;;;;;;1.63;0.75;;;;;;;;;;5127610;27;20056;-63
2023/07/12 14:22:24;;;;;;;3.58;0.90;;;;;;;;;;5120423;27;20100;-63
2023/07/12 14:24:52;;;;;;;2.25;0.85;;;;;;;;;;5115356;27;20048;-62
2023/07/12 14:27:20;;;;;;;1.60;0.80;;;;;;;;;;5118235;27;20402;-63
2023/07/12 14:29:48;;;;;;;3.15;0.75;;;;;;;;;;5115873;27;20133;-60
2023/07/12 14:32:25;;;;;;;3.70;1.02;;;;;;;;;;5117224;27;20312;-63
2023/07/12 14:34:51;;;;;;;1.95;0.82;;;;;;;;;;5121172;27;20099;-63
2023/07/12 14:37:19;;;;;;;2.88;0.82;;;;;;;;;;5116966;27;20059;-64
2023/07/12 14:39:45;;;;;;;1.60;1.15;;;;;;;;;;5119305;27;20047;-64
2023/07/12 14:42:22;;;;;;;1.98;0.82;;;;;;;;;;5122160;27;20047;-63
2023/07/12 14:44:49;;;;;;;2.35;0.80;;;;;;;;;;5121553;27;20105;-64
2023/07/12 14:47:16;;;;;;;1.92;1.20;;;;;;;;;;5122135;27;20150;-64